Overview Statistics Trail Chart Weather Telemetry Raw packets
 

This is the latest recevied packets stored in our database for station/object DF4ND-24. If no packets are shown the sender has not sent any packets the latest 24 hours.

If you compare the raw packets with similar data from other websites it may differ (especially the path), the reason is that we are not collecting packets from the same APRS-IS servers. Each APRS-IS server performes duplicate filtering, and which packet that is considered to be a duplicate may differ depending on which APRS-IS server you receive your data from.

<< 1 2 3 4 >>

1788612271: DF4ND-24>APRSMC,TCPIP*,qAR,DF4ND-99:T#231,978.8,25.1,49.5,1027.6,25.2,00000000

1788612271: DF4ND-24>APRSMC,TCPIP*,qAR,DF4ND-99::DF4ND-24 :UNIT.hPa,C deg,%,hPa,C deg,Y/N,O/N,O/N,O/N,O/N,O/N,O/N,O/N

1788612271: DF4ND-24>APRSMC,TCPIP*,qAR,DF4ND-99::DF4ND-24 :PARM.Press,Temp.in,Hum,QNH,Temp.out,track,-,-,-,-,-,-,-

1788612271: DF4ND-24>APRSMC,TCPIP*,qAR,DF4ND-99::DF4ND-24 :EQNS.0,1,0,0,1,0,0,1,0,0,1,0,0,1,0

1788612271: DF4ND-24>APRSMC,TCPIP*,qAR,DF4ND-99:!4929.17N/01040.16E#/A=001394/N6

1788610445: DF4ND-24>APRSMC,TCPIP*,qAR,DD0NM-99:T#230,978.8,24.9,49.8,1027.7,25.1,00000000

1788610445: DF4ND-24>APRSMC,TCPIP*,qAR,DD0NM-99:!4929.17N/01040.16E#/A=001394/N6

1788608612: DF4ND-24>APRSMC,TCPIP*,qAR,DF4ND-99:!4929.17N/01040.16E#/A=001394/N5

1788608612: DF4ND-24>APRSMC,TCPIP*,qAR,DF4ND-99:T#229,978.7,24.8,50.6,1027.6,24.8,00000000

1788606790: DF4ND-24>APRSMC,TCPIP*,qAR,DD0NM-99:T#228,978.7,24.6,52.0,1027.7,24.8,00000000

1788606790: DF4ND-24>APRSMC,TCPIP*,qAR,DD0NM-99:!4929.17N/01040.16E#/A=001394/N5

1788604955: DF4ND-24>APRSMC,TCPIP*,qAR,DF4ND-99:T#227,978.7,24.5,52.0,1027.7,24.6,00000000

1788604955: DF4ND-24>APRSMC,TCPIP*,qAR,DF4ND-99:!4929.17N/01040.16E#/A=001394/N5

1788603126: DF4ND-24>APRSMC,TCPIP*,qAR,DF4ND-99:T#226,978.8,24.2,53.3,1027.9,24.1,00000000

1788603126: DF4ND-24>APRSMC,TCPIP*,qAR,DF4ND-99:!4929.17N/01040.16E#/A=001394/N6

1788601293: DF4ND-24>APRSMC,TCPIP*,qAR,DD0NM-99:T#225,978.7,24.1,54.5,1027.8,23.9,00000000

1788601293: DF4ND-24>APRSMC,TCPIP*,qAR,DB0NH-3:T#290,978.7,24.1,54.5,1027.8,23.9,00000000

1788601293: DF4ND-24>APRSMC,TCPIP*,qAR,DD0NM-99:!4929.17N/01040.16E#/A=001394/N6

1788599465: DF4ND-24>APRSMC,TCPIP*,qAR,DB0NH-3:T#289,978.8,23.9,55.5,1028.1,23.6,00000000

1788599465: DF4ND-24>APRSMC,TCPIP*,qAR,DD0NM-99:!4929.17N/01040.16E#/A=001398/N6

1788599465: DF4ND-24>APRSMC,TCPIP*,qAR,DD0NM-99:T#224,978.8,23.9,55.5,1028.1,23.6,00000000

1788597631: DF4ND-24>APRSMC,TCPIP*,qAR,DF4ND-99:T#223,978.6,23.8,55.1,1027.8,23.6,00000000

1788597631: DF4ND-24>APRSMC,TCPIP*,qAR,DF4ND-99:!4929.17N/01040.16E#/A=001398/N6

1788595803: DF4ND-24>APRSMC,TCPIP*,qAR,DB0NH-3:T#288,978.4,23.8,54.1,1027.6,23.5,00000000

1788595803: DF4ND-24>APRSMC,TCPIP*,qAR,DF4ND-99:T#222,978.4,23.8,54.1,1027.6,23.5,00000000